Taipei, Taiwan
Current Conditions -  °F | °C
As of 11:00 PM on Monday 24 Nov 2014 (Local Time) from RCSS Reporting Station
Haze Haze  
Wind Chill: 70°   Ceiling: Unl
Heat Index: 70°   Visibility: 3mi
Dew Point: 64°   Wind: 3mph
Humidity: 83%   Direction: 100°E
Pressure: 29.94"   Gusts: NA
Location:  25.02°N, 121.45°E
Report Text: RCSS 241500Z 10003KT 4800 BR FEW020 21/18 Q1014 NOSIG RMKA2997
Loading
Personal Weather Stations






























Interactive Weather Map New forecast layout! Learn more

10-Day Weather Forecast

Advertisements
Track Severe Weather on mobile